Time;durP1;ratioP1;P1;durP2;ratioP2;P2;SDS_P1;SDS_P2;PMS_P1;PMS_P2;Temp;Humidity;BMP_temperature;BMP_pressure;BME280_temperature;BME280_humidity;BME280_pressure;Samples;Min_cycle;Max_cycle;Signal;HPM_P1;HPM_P2
2022/02/21 00:01:59;;;;;;;4.28;0.55;;;;;;;10.02;71.75;98549.75;5005834;28;20137;-77
2022/02/21 00:04:25;;;;;;;1.65;0.40;;;;;;;10.00;71.50;98519.97;5004048;28;20026;-76
2022/02/21 00:06:50;;;;;;;1.85;0.52;;;;;;;10.04;70.74;98518.94;5002711;28;20030;-77
2022/02/21 00:09:16;;;;;;;2.10;0.68;;;;;;;10.12;70.64;98513.41;5004936;28;20088;-77
2022/02/21 00:11:41;;;;;;;4.30;0.60;;;;;;;10.17;70.46;98516.72;5005781;28;20501;-77
2022/02/21 00:14:07;;;;;;;1.50;0.50;;;;;;;10.18;70.14;98501.78;5003313;28;20027;-77
2022/02/21 00:16:33;;;;;;;1.42;0.40;;;;;;;10.23;70.35;98492.78;4986536;28;20120;-76
2022/02/21 00:18:59;;;;;;;1.08;0.40;;;;;;;10.26;70.11;98478.63;5004800;28;20037;-77
2022/02/21 00:21:24;;;;;;;1.10;0.30;;;;;;;10.30;69.27;98469.72;5003719;28;20045;-77
2022/02/21 00:23:50;;;;;;;2.20;0.57;;;;;;;10.37;69.18;98472.97;4995204;28;20030;-77
2022/02/21 00:26:15;;;;;;;2.25;0.52;;;;;;;10.44;69.17;98445.44;5003504;28;20066;-77
2022/02/21 00:28:42;;;;;;;2.10;0.35;;;;;;;10.44;69.22;98440.19;4986035;28;20121;-76
2022/02/21 00:31:07;;;;;;;3.42;0.50;;;;;;;10.47;69.37;98446.19;5004678;28;20030;-77
2022/02/21 00:33:32;;;;;;;3.88;0.45;;;;;;;10.47;68.86;98463.78;5002013;28;20418;-77
2022/02/21 00:35:58;;;;;;;2.78;0.50;;;;;;;10.44;69.06;98427.84;4987119;28;20030;-76
2022/02/21 00:38:23;;;;;;;3.58;0.50;;;;;;;10.43;68.88;98417.38;5002989;28;20593;-76
2022/02/21 00:40:49;;;;;;;1.83;0.38;;;;;;;10.53;68.53;98409.03;5004319;28;20053;-76
2022/02/21 00:43:14;;;;;;;3.20;0.63;;;;;;;10.51;68.42;98407.38;5004973;28;20100;-76
2022/02/21 00:45:39;;;;;;;2.33;0.73;;;;;;;10.54;68.62;98394.06;5004073;28;20037;-76
2022/02/21 00:48:05;;;;;;;7.82;0.60;;;;;;;10.53;68.73;98387.06;4988188;28;20458;-76
2022/02/21 00:50:30;;;;;;;1.77;0.65;;;;;;;10.52;68.72;98388.84;5003814;28;20041;-76
2022/02/21 00:52:56;;;;;;;2.13;0.50;;;;;;;10.56;68.37;98392.22;5005782;28;20030;-77
2022/02/21 00:55:23;;;;;;;3.08;0.52;;;;;;;10.56;68.00;98359.69;5004958;28;20528;-76
2022/02/21 00:57:48;;;;;;;6.47;1.42;;;;;;;10.52;67.90;98351.06;5002908;28;20046;-76
2022/02/21 01:00:15;;;;;;;6.05;0.63;;;;;;;10.55;68.16;98344.81;5009224;28;20509;-76
2022/02/21 01:02:41;;;;;;;2.60;0.63;;;;;;;10.61;68.70;98341.91;5004669;28;20038;-76
2022/02/21 01:05:07;;;;;;;2.20;0.65;;;;;;;10.60;67.37;98324.38;5004530;28;20100;-77
2022/02/21 01:07:32;;;;;;;4.53;0.90;;;;;;;10.63;67.27;98313.69;5005452;28;20129;-76
2022/02/21 01:09:57;;;;;;;4.20;1.17;;;;;;;10.72;67.10;98332.63;5003387;28;20168;-76
2022/02/21 01:12:23;;;;;;;2.05;0.60;;;;;;;10.75;67.10;98323.72;5003899;28;20033;-76
2022/02/21 01:14:48;;;;;;;3.65;0.70;;;;;;;10.70;67.42;98317.78;5003809;28;20576;-76
2022/02/21 01:17:14;;;;;;;3.78;0.70;;;;;;;10.69;66.67;98305.53;5001444;28;20042;-76
2022/02/21 01:19:40;;;;;;;6.20;1.45;;;;;;;10.61;67.05;98295.31;5003504;28;20117;-76
2022/02/21 01:22:07;;;;;;;5.78;0.60;;;;;;;10.68;66.45;98301.16;4985834;28;20030;-76
2022/02/21 01:24:33;;;;;;;5.50;1.17;;;;;;;10.65;66.07;98285.47;5004035;28;20549;-76
2022/02/21 01:26:58;;;;;;;5.05;1.10;;;;;;;10.69;66.05;98271.25;5000571;28;20029;-76
2022/02/21 01:29:23;;;;;;;3.28;0.80;;;;;;;10.70;65.74;98279.06;5003618;28;20040;-76
2022/02/21 01:31:49;;;;;;;3.53;0.95;;;;;;;10.72;65.67;98273.75;5002191;28;20042;-76
2022/02/21 01:34:14;;;;;;;3.60;0.93;;;;;;;10.70;66.09;98268.53;5001938;28;20121;-76
2022/02/21 01:36:40;;;;;;;3.38;0.63;;;;;;;10.63;65.66;98282.03;5004094;28;20405;-76
2022/02/21 01:39:07;;;;;;;3.15;0.88;;;;;;;10.63;65.17;98290.78;4992569;28;20108;-76
2022/02/21 01:41:32;;;;;;;2.88;0.70;;;;;;;10.69;65.29;98287.91;4986463;28;20038;-76
2022/02/21 01:44:10;;;;;;;5.90;1.00;;;;;;;10.69;64.57;98266.81;5004610;28;20045;-76
2022/02/21 01:46:36;;;;;;;2.45;0.60;;;;;;;10.71;64.63;98279.91;4986236;28;20038;-76
2022/02/21 01:49:02;;;;;;;2.78;0.50;;;;;;;10.73;63.89;98273.66;4985372;28;20062;-76
2022/02/21 01:51:28;;;;;;;5.20;0.77;;;;;;;10.87;63.89;98267.81;5002999;28;20065;-77
2022/02/21 01:53:55;;;;;;;1.70;0.60;;;;;;;10.88;63.52;98252.81;5000807;28;20493;-76
2022/02/21 01:56:21;;;;;;;4.70;0.93;;;;;;;10.87;63.94;98236.16;5003147;28;20121;-76
2022/02/21 01:58:46;;;;;;;2.35;0.45;;;;;;;10.81;63.92;98210.00;5002237;28;20124;-76
2022/02/21 02:01:12;;;;;;;3.75;0.70;;;;;;;10.82;63.79;98214.38;4999789;28;20038;-76
2022/02/21 02:03:38;;;;;;;2.88;0.60;;;;;;;10.88;63.72;98205.31;5003492;28;20405;-76
2022/02/21 02:06:06;;;;;;;2.38;0.47;;;;;;;10.90;63.00;98188.50;5000826;28;20042;-76
2022/02/21 02:08:32;;;;;;;2.67;0.57;;;;;;;11.03;63.15;98185.28;4986599;28;20108;-76
2022/02/21 02:10:58;;;;;;;4.10;1.08;;;;;;;10.99;63.26;98178.44;5005327;28;20030;-77
2022/02/21 02:13:23;;;;;;;4.63;0.73;;;;;;;11.03;63.09;98193.22;5001526;28;20144;-77
2022/02/21 02:15:53;;;;;;;4.40;0.75;;;;;;;11.01;63.12;98171.34;5003138;28;20460;-77
2022/02/21 02:18:19;;;;;;;4.57;0.90;;;;;;;10.97;62.76;98170.59;4982386;28;20044;-77
2022/02/21 02:20:44;;;;;;;2.65;0.57;;;;;;;10.79;63.53;98172.28;5004153;28;20429;-76
2022/02/21 02:23:09;;;;;;;1.55;0.40;;;;;;;10.84;63.08;98148.31;4982510;28;20026;-76
2022/02/21 02:25:35;;;;;;;2.97;0.45;;;;;;;10.72;63.77;98176.13;5001633;28;20038;-76
2022/02/21 02:28:00;;;;;;;2.33;0.50;;;;;;;10.71;63.46;98166.47;5001516;28;20117;-76
2022/02/21 02:30:26;;;;;;;3.30;0.60;;;;;;;10.65;63.20;98158.84;5001122;28;20069;-76
2022/02/21 02:32:54;;;;;;;4.13;0.60;;;;;;;10.60;63.93;98168.75;5001577;28;20533;-76
2022/02/21 02:35:20;;;;;;;2.58;0.50;;;;;;;10.71;63.53;98142.75;5000464;28;20057;-76
2022/02/21 02:37:45;;;;;;;3.35;0.50;;;;;;;10.70;63.71;98119.94;4984406;28;20104;-76
2022/02/21 02:40:11;;;;;;;1.50;0.40;;;;;;;10.64;63.49;98107.88;5002029;28;20563;-76
2022/02/21 02:42:36;;;;;;;1.92;0.30;;;;;;;10.61;63.87;98088.69;5002475;28;20034;-76
2022/02/21 02:45:01;;;;;;;2.25;0.50;;;;;;;10.53;63.73;98091.66;5005255;28;20054;-74
2022/02/21 02:47:27;;;;;;;2.17;0.70;;;;;;;10.53;64.10;98096.94;4986309;28;20121;-74
2022/02/21 02:49:52;;;;;;;3.63;0.63;;;;;;;10.54;63.83;98098.66;5001972;28;20065;-74
2022/02/21 02:52:18;;;;;;;2.97;0.60;;;;;;;10.51;63.93;98089.13;5001901;28;20030;-74
2022/02/21 02:54:43;;;;;;;2.30;0.60;;;;;;;10.49;64.27;98090.97;4999975;28;20537;-74
2022/02/21 02:57:09;;;;;;;2.95;0.45;;;;;;;10.47;64.40;98087.53;5002818;28;20157;-74
2022/02/21 02:59:34;;;;;;;2.70;0.50;;;;;;;10.48;64.23;98077.84;4983887;28;20184;-76
2022/02/21 03:02:00;;;;;;;2.25;0.50;;;;;;;10.45;64.41;98077.97;5001375;28;20046;-76
2022/02/21 03:04:25;;;;;;;2.70;0.40;;;;;;;10.38;64.98;98066.84;5002384;28;20041;-76
2022/02/21 03:06:51;;;;;;;2.88;0.63;;;;;;;10.34;65.20;98070.53;5003198;28;20034;-77
2022/02/21 03:09:16;;;;;;;2.42;0.50;;;;;;;10.31;65.07;98066.25;5000591;28;20042;-76
2022/02/21 03:11:41;;;;;;;2.63;0.40;;;;;;;10.31;65.13;98071.53;5005710;28;20045;-76
2022/02/21 03:14:07;;;;;;;3.13;0.40;;;;;;;10.35;65.50;98074.91;5003447;28;20042;-76
2022/02/21 03:16:32;;;;;;;2.03;0.32;;;;;;;10.40;65.47;98075.56;5002407;28;20045;-76
2022/02/21 03:18:58;;;;;;;1.58;0.35;;;;;;;10.44;65.45;98081.53;5009038;28;20412;-76
2022/02/21 03:21:23;;;;;;;1.77;0.30;;;;;;;10.50;65.94;98076.84;5003708;28;20037;-76
2022/02/21 03:23:49;;;;;;;2.00;0.40;;;;;;;10.50;68.36;98094.44;5001377;28;20045;-76
2022/02/21 03:26:14;;;;;;;2.47;0.40;;;;;;;10.12;71.97;98167.28;5000250;28;20034;-76
2022/02/21 03:28:40;;;;;;;4.60;0.55;;;;;;;9.53;77.25;98266.19;5002995;28;20065;-78
2022/02/21 03:31:05;;;;;;;1.27;0.20;;;;;;;8.53;73.59;98317.13;5000126;28;20061;-78
2022/02/21 03:33:31;;;;;;;7.15;0.52;;;;;;;7.78;74.74;98251.19;5002979;28;20034;-80
2022/02/21 03:35:56;;;;;;;2.08;0.30;;;;;;;7.46;77.39;98242.53;5002811;28;20038;-79
2022/02/21 03:38:21;;;;;;;1.83;0.40;;;;;;;7.25;78.60;98231.75;5003676;28;20536;-78
2022/02/21 03:40:48;;;;;;;1.40;0.30;;;;;;;7.07;79.11;98199.97;5000966;28;20045;-78
2022/02/21 03:43:14;;;;;;;2.60;0.47;;;;;;;6.89;77.09;98233.72;4982336;28;20117;-77
2022/02/21 03:45:39;;;;;;;2.80;0.30;;;;;;;6.84;77.10;98238.22;5000940;28;20129;-77
2022/02/21 03:48:05;;;;;;;2.38;0.50;;;;;;;6.97;74.44;98238.75;5002675;28;20041;-77
2022/02/21 03:50:30;;;;;;;1.65;0.50;;;;;;;7.13;72.99;98228.66;5001908;28;20034;-77
2022/02/21 03:52:55;;;;;;;2.78;0.50;;;;;;;7.07;75.54;98231.44;5008267;28;20034;-77
2022/02/21 03:55:21;;;;;;;1.33;0.25;;;;;;;7.15;73.81;98224.22;4976466;28;20029;-78
2022/02/21 03:57:47;;;;;;;1.55;0.10;;;;;;;7.26;72.20;98216.91;5005603;28;20042;-78
2022/02/21 04:00:14;;;;;;;2.53;0.30;;;;;;;7.31;72.71;98217.63;5003591;28;20038;-78
2022/02/21 04:02:41;;;;;;;1.30;0.20;;;;;;;7.40;71.48;98227.84;5005422;28;20042;-78
2022/02/21 04:05:07;;;;;;;0.55;0.10;;;;;;;7.42;70.42;98247.03;5016025;28;20048;-78
2022/02/21 04:07:33;;;;;;;1.92;0.30;;;;;;;7.55;70.78;98234.41;4988405;28;20076;-78
2022/02/21 04:09:59;;;;;;;3.20;0.32;;;;;;;7.50;71.60;98257.28;4995597;28;20366;-77
2022/02/21 04:12:25;;;;;;;1.63;0.50;;;;;;;7.61;70.74;98254.34;5011276;28;20030;-77
2022/02/21 04:14:50;;;;;;;2.15;0.47;;;;;;;7.53;71.68;98266.84;5010305;28;20038;-78
2022/02/21 04:17:16;;;;;;;3.92;0.82;;;;;;;7.58;70.67;98278.06;5006516;28;20061;-77
2022/02/21 04:19:41;;;;;;;4.00;0.65;;;;;;;7.67;70.56;98256.78;4969750;28;20030;-78
2022/02/21 04:22:11;;;;;;;5.85;1.38;;;;;;;7.65;70.46;98240.19;4988004;28;20039;-77
2022/02/21 04:24:37;;;;;;;5.93;1.98;;;;;;;7.65;71.29;98250.69;5004242;28;20440;-77
2022/02/21 04:27:04;;;;;;;2.60;0.80;;;;;;;7.61;71.07;98255.19;5004580;28;20518;-78
2022/02/21 04:29:29;;;;;;;1.98;0.77;;;;;;;7.67;71.16;98255.00;5002484;28;20034;-78
2022/02/21 04:31:54;;;;;;;5.05;1.70;;;;;;;7.70;71.39;98285.56;5001409;28;20045;-78
2022/02/21 04:34:20;;;;;;;1.42;0.30;;;;;;;7.59;72.13;98295.53;5003216;28;20030;-77
2022/02/21 04:36:45;;;;;;;0.93;0.13;;;;;;;7.55;72.42;98284.28;5004289;28;20045;-78
2022/02/21 04:39:10;;;;;;;2.85;0.40;;;;;;;7.58;71.59;98278.06;5010788;28;20042;-79
2022/02/21 04:41:36;;;;;;;2.25;0.50;;;;;;;7.60;72.30;98273.63;5001176;28;20060;-78
2022/02/21 04:44:02;;;;;;;3.20;0.40;;;;;;;7.58;72.24;98280.69;4987343;28;20157;-79
2022/02/21 04:46:27;;;;;;;1.25;0.30;;;;;;;7.55;72.97;98286.88;4988103;28;20037;-78
2022/02/21 04:48:52;;;;;;;2.17;0.40;;;;;;;7.49;72.87;98289.69;5003602;28;20081;-77
2022/02/21 04:51:18;;;;;;;1.48;0.20;;;;;;;7.43;73.09;98288.09;4988085;28;20034;-77
2022/02/21 04:53:43;;;;;;;1.27;0.43;;;;;;;7.41;73.10;98292.56;5005123;28;20537;-77
2022/02/21 04:56:09;;;;;;;2.10;0.22;;;;;;;7.35;72.57;98284.84;5009746;28;20120;-77
2022/02/21 04:58:34;;;;;;;1.75;0.40;;;;;;;7.41;73.15;98295.19;5008951;28;20042;-77
2022/02/21 05:00:59;;;;;;;2.03;0.35;;;;;;;7.42;71.66;98296.88;4987766;28;20382;-77
2022/02/21 05:03:25;;;;;;;2.70;0.30;;;;;;;7.32;72.34;98294.56;5010330;28;20053;-78
2022/02/21 05:05:50;;;;;;;1.10;0.20;;;;;;;7.34;72.29;98325.13;5010110;28;20628;-78
2022/02/21 05:08:15;;;;;;;1.75;0.30;;;;;;;7.41;72.35;98342.41;5005182;28;20064;-77
2022/02/21 05:10:41;;;;;;;1.10;0.30;;;;;;;7.39;72.06;98322.38;5003461;28;20113;-77
2022/02/21 05:13:06;;;;;;;2.40;0.30;;;;;;;7.44;71.23;98350.19;5002087;28;20111;-77
2022/02/21 05:15:31;;;;;;;1.83;0.30;;;;;;;7.49;70.55;98344.78;5003993;28;20511;-77
2022/02/21 05:17:57;;;;;;;1.63;0.50;;;;;;;7.44;70.57;98352.81;5006416;28;20441;-77
2022/02/21 05:20:23;;;;;;;1.65;0.35;;;;;;;7.48;70.49;98337.84;5007962;28;20038;-77
2022/02/21 05:22:48;;;;;;;1.05;0.20;;;;;;;7.45;70.09;98354.53;5007221;28;20571;-77
2022/02/21 05:25:13;;;;;;;2.00;0.50;;;;;;;7.55;69.49;98385.78;5001488;28;20438;-77
2022/02/21 05:27:41;;;;;;;2.40;0.50;;;;;;;7.45;70.27;98370.28;5004294;28;20038;-77
2022/02/21 05:30:08;;;;;;;3.28;0.50;;;;;;;7.44;70.33;98370.31;5002361;28;20441;-77
2022/02/21 05:32:34;;;;;;;1.10;0.30;;;;;;;7.46;70.25;98387.72;5001139;28;20424;-77
2022/02/21 05:35:00;;;;;;;1.98;0.32;;;;;;;7.43;68.72;98389.59;4996491;28;20025;-77
2022/02/21 05:37:26;;;;;;;1.35;0.45;;;;;;;7.40;68.02;98395.78;5015612;28;20120;-76
2022/02/21 05:39:52;;;;;;;3.85;0.68;;;;;;;7.53;67.01;98398.94;5022856;28;20116;-77
2022/02/21 05:42:17;;;;;;;1.10;0.20;;;;;;;7.49;66.36;98399.91;5022108;28;20040;-77
2022/02/21 05:44:43;;;;;;;1.85;0.35;;;;;;;7.47;66.75;98413.09;5018503;28;20034;-77
2022/02/21 05:47:08;;;;;;;2.05;0.50;;;;;;;7.43;67.94;98414.06;5015025;28;20569;-77
2022/02/21 05:49:33;;;;;;;3.45;0.25;;;;;;;7.45;68.42;98412.28;5019145;28;20405;-77
2022/02/21 05:52:00;;;;;;;1.65;0.32;;;;;;;7.37;68.13;98422.13;5003303;28;20041;-77
2022/02/21 05:54:25;;;;;;;1.58;0.50;;;;;;;7.37;68.31;98430.00;5005414;28;20035;-77
2022/02/21 05:56:51;;;;;;;2.53;0.22;;;;;;;7.37;68.81;98413.41;5012945;28;20099;-77
2022/02/21 05:59:17;;;;;;;1.48;0.60;;;;;;;7.29;68.40;98426.72;5009341;28;20037;-77
2022/02/21 06:01:42;;;;;;;3.00;0.40;;;;;;;7.23;66.29;98425.13;5004079;28;20113;-77
2022/02/21 06:04:08;;;;;;;2.15;0.50;;;;;;;7.24;64.95;98412.84;4991027;28;20536;-77
2022/02/21 06:06:34;;;;;;;5.97;0.50;;;;;;;7.16;63.03;98423.56;4991262;28;20030;-77
2022/02/21 06:08:59;;;;;;;2.40;0.50;;;;;;;7.22;64.17;98431.25;5009511;28;20497;-77
2022/02/21 06:11:24;;;;;;;3.45;0.40;;;;;;;7.25;63.80;98441.66;5005523;28;20468;-77
2022/02/21 06:13:50;;;;;;;2.03;0.50;;;;;;;7.23;63.84;98455.72;5006104;28;20038;-77
2022/02/21 06:16:15;;;;;;;3.30;0.60;;;;;;;7.23;63.55;98474.09;4994212;28;20033;-77
2022/02/21 06:18:40;;;;;;;3.90;0.68;;;;;;;7.14;64.51;98476.94;5000435;28;20494;-77
2022/02/21 06:21:06;;;;;;;2.42;0.55;;;;;;;7.20;64.21;98489.91;5003095;28;20157;-77
2022/02/21 06:23:31;;;;;;;3.63;0.50;;;;;;;7.15;64.56;98491.78;5001174;28;20034;-77
2022/02/21 06:25:56;;;;;;;4.15;0.50;;;;;;;7.11;64.50;98500.66;5003450;28;20048;-77
2022/02/21 06:28:24;;;;;;;1.90;0.38;;;;;;;7.09;64.09;98513.78;5002751;28;20568;-76
2022/02/21 06:30:51;;;;;;;5.63;0.60;;;;;;;7.08;65.20;98524.34;5005007;28;20141;-77
2022/02/21 06:33:17;;;;;;;2.47;0.68;;;;;;;6.99;63.61;98515.75;5002087;28;20034;-77
2022/02/21 06:35:43;;;;;;;2.25;0.57;;;;;;;6.90;63.46;98546.59;4992562;28;20391;-77
2022/02/21 06:38:08;;;;;;;1.73;0.40;;;;;;;6.72;64.01;98511.19;5005943;28;20044;-77
2022/02/21 06:40:34;;;;;;;3.47;0.70;;;;;;;6.51;63.46;98536.97;5001587;28;20039;-76
2022/02/21 06:43:01;;;;;;;3.60;0.70;;;;;;;6.49;62.99;98537.88;5002247;28;20406;-77
2022/02/21 06:45:27;;;;;;;2.38;0.50;;;;;;;6.42;62.82;98545.03;4993468;28;20033;-77
2022/02/21 06:47:52;;;;;;;4.32;1.00;;;;;;;6.48;61.41;98551.91;4999409;28;20172;-77
2022/02/21 06:50:18;;;;;;;3.60;0.60;;;;;;;6.39;61.33;98584.38;5005223;28;20545;-77
2022/02/21 06:52:44;;;;;;;4.63;0.77;;;;;;;6.33;62.22;98564.41;5002680;28;20038;-77
2022/02/21 06:55:12;;;;;;;4.38;0.82;;;;;;;6.25;61.58;98562.84;4984309;28;20137;-77
2022/02/21 06:57:39;;;;;;;3.53;0.80;;;;;;;6.24;62.26;98569.00;4992336;28;20100;-76
2022/02/21 07:00:06;;;;;;;4.38;1.30;;;;;;;6.13;62.28;98569.19;4993263;28;20041;-77
2022/02/21 07:02:31;;;;;;;3.83;0.80;;;;;;;6.12;62.81;98575.31;4984037;28;20041;-77
2022/02/21 07:04:57;;;;;;;5.97;1.25;;;;;;;6.02;62.63;98585.09;5003704;28;20038;-77
2022/02/21 07:07:22;;;;;;;4.72;0.93;;;;;;;6.01;63.41;98608.72;5000703;28;20113;-77
2022/02/21 07:09:47;;;;;;;8.70;1.17;;;;;;;5.96;62.80;98595.69;5002857;28;20087;-77
2022/02/21 07:12:13;;;;;;;6.75;0.90;;;;;;;5.92;63.45;98620.16;4982816;28;20092;-76
2022/02/21 07:14:38;;;;;;;4.20;0.95;;;;;;;6.09;63.37;98620.78;5007124;28;20038;-77
2022/02/21 07:17:04;;;;;;;5.50;1.10;;;;;;;6.18;63.11;98626.72;5007593;28;20362;-76
2022/02/21 07:19:29;;;;;;;6.68;1.25;;;;;;;6.25;64.65;98651.91;5005531;28;20068;-76
2022/02/21 07:21:54;;;;;;;3.38;0.65;;;;;;;6.32;62.81;98640.44;5006885;28;20048;-76
2022/02/21 07:24:20;;;;;;;2.78;0.55;;;;;;;6.50;62.26;98613.88;5006122;28;20112;-77
2022/02/21 07:26:45;;;;;;;3.67;0.80;;;;;;;6.43;62.85;98612.25;5005389;28;20038;-76
2022/02/21 07:29:10;;;;;;;3.10;0.60;;;;;;;6.46;61.97;98638.41;5004581;28;20034;-77
2022/02/21 07:31:36;;;;;;;4.22;0.90;;;;;;;6.50;61.47;98623.50;5004290;28;20569;-77
2022/02/21 07:34:01;;;;;;;7.90;1.13;;;;;;;6.35;61.76;98624.66;5007220;28;20541;-76
2022/02/21 07:36:28;;;;;;;3.97;0.50;;;;;;;6.30;61.68;98621.25;5005853;28;20109;-77
2022/02/21 07:38:53;;;;;;;3.72;0.60;;;;;;;6.21;61.53;98618.81;5006714;28;20506;-77
2022/02/21 07:41:19;;;;;;;3.40;0.65;;;;;;;6.11;61.61;98667.91;5012827;28;20030;-77
2022/02/21 07:43:44;;;;;;;4.22;0.70;;;;;;;5.96;62.41;98665.53;5005526;28;20445;-77
2022/02/21 07:46:10;;;;;;;2.90;0.73;;;;;;;5.90;62.69;98667.34;4972160;28;20124;-77
2022/02/21 07:48:36;;;;;;;3.80;0.80;;;;;;;5.89;63.00;98675.22;4987072;28;20042;-77
2022/02/21 07:51:02;;;;;;;4.72;0.85;;;;;;;5.84;63.49;98690.13;5003792;28;20084;-77
2022/02/21 07:53:27;;;;;;;6.85;0.98;;;;;;;5.71;63.97;98695.59;5003361;28;20026;-77
2022/02/21 07:55:53;;;;;;;6.00;0.90;;;;;;;5.55;64.14;98688.84;4995029;28;20030;-77
2022/02/21 07:58:18;;;;;;;7.05;1.05;;;;;;;5.37;65.28;98686.50;4990284;28;20070;-77
2022/02/21 08:00:44;;;;;;;5.68;0.80;;;;;;;5.31;65.96;98716.22;5009393;28;20045;-77
2022/02/21 08:03:09;;;;;;;4.47;1.42;;;;;;;5.37;66.03;98704.81;5006313;28;20036;-77
2022/02/21 08:05:36;;;;;;;4.72;0.90;;;;;;;5.53;66.24;98721.16;5003364;28;20759;-77
2022/02/21 08:08:08;;;;;;;4.50;0.70;;;;;;;5.75;65.74;98716.47;4991216;28;20493;-76
2022/02/21 08:10:34;;;;;;;3.97;0.93;;;;;;;5.82;65.77;98720.72;5007296;28;20030;-77
2022/02/21 08:12:59;;;;;;;5.38;1.00;;;;;;;5.85;64.17;98728.53;5007191;28;20089;-77
2022/02/21 08:15:25;;;;;;;6.75;0.85;;;;;;;5.89;63.80;98753.75;4993081;28;20482;-77
2022/02/21 08:17:50;;;;;;;3.83;0.88;;;;;;;5.99;64.09;98750.13;5006531;28;20045;-77
2022/02/21 08:20:20;;;;;;;4.00;0.65;;;;;;;6.01;63.72;98750.13;5003778;28;20056;-77
2022/02/21 08:22:46;;;;;;;4.82;0.75;;;;;;;5.85;64.06;98781.75;4994457;28;20122;-77
2022/02/21 08:25:13;;;;;;;6.00;1.13;;;;;;;5.73;63.89;98755.75;5005355;28;20124;-77
2022/02/21 08:27:41;;;;;;;5.72;1.10;;;;;;;5.95;63.72;98756.34;5003184;28;20039;-77
2022/02/21 08:30:09;;;;;;;4.88;0.80;;;;;;;6.19;63.41;98775.16;5004887;28;20042;-77
2022/02/21 08:32:35;;;;;;;3.67;1.02;;;;;;;6.18;62.94;98768.16;4987548;28;20033;-77
2022/02/21 08:35:00;;;;;;;4.85;1.10;;;;;;;6.28;63.18;98769.75;4991505;28;20402;-77
2022/02/21 08:37:26;;;;;;;6.95;1.20;;;;;;;6.18;61.60;98768.16;5005540;28;20030;-77
2022/02/21 08:39:51;;;;;;;8.27;1.42;;;;;;;6.00;62.11;98764.09;5004691;28;20066;-77
2022/02/21 08:42:16;;;;;;;7.65;1.48;;;;;;;6.09;60.76;98774.44;5003860;28;20064;-77
2022/02/21 08:44:42;;;;;;;8.02;1.50;;;;;;;6.10;61.75;98784.91;5005596;28;20034;-77
2022/02/21 08:47:07;;;;;;;7.05;1.40;;;;;;;6.10;61.62;98771.81;5006590;28;20041;-77
2022/02/21 08:49:32;;;;;;;5.72;1.55;;;;;;;6.02;59.51;98786.75;5003980;28;20052;-77
2022/02/21 08:51:58;;;;;;;6.60;1.25;;;;;;;6.11;60.24;98793.63;5002004;28;20113;-77
2022/02/21 08:54:24;;;;;;;6.15;1.40;;;;;;;6.09;59.23;98791.00;5008975;28;20038;-77
2022/02/21 08:56:49;;;;;;;6.13;1.15;;;;;;;6.31;59.69;98790.66;5006069;28;20065;-77
2022/02/21 08:59:18;;;;;;;9.18;1.48;;;;;;;6.27;58.73;98783.75;5010451;28;20042;-76
2022/02/21 09:01:44;;;;;;;5.40;1.20;;;;;;;6.25;58.70;98796.00;5006728;28;20408;-77
2022/02/21 09:04:11;;;;;;;8.57;1.42;;;;;;;6.32;58.70;98792.41;4994665;28;20030;-77
2022/02/21 09:06:37;;;;;;;6.93;1.40;;;;;;;6.48;59.01;98796.47;5002542;28;20034;-77
2022/02/21 09:09:02;;;;;;;7.60;1.38;;;;;;;6.41;58.94;98787.00;5002922;28;20402;-77
2022/02/21 09:11:28;;;;;;;9.35;2.00;;;;;;;6.35;58.88;98779.25;5003861;28;20034;-77
2022/02/21 09:13:53;;;;;;;9.73;1.48;;;;;;;6.23;57.96;98789.91;5005211;28;20042;-77
2022/02/21 09:16:19;;;;;;;9.52;1.67;;;;;;;6.32;59.09;98787.16;5002460;28;20108;-77
2022/02/21 09:18:44;;;;;;;6.03;1.55;;;;;;;6.31;59.05;98785.41;5003274;28;20037;-77
2022/02/21 09:21:09;;;;;;;7.60;1.63;;;;;;;6.39;57.68;98803.63;5003826;28;20045;-77
2022/02/21 09:23:35;;;;;;;6.30;0.88;;;;;;;6.53;58.21;98791.16;5004297;28;20038;-78
2022/02/21 09:26:00;;;;;;;5.70;1.30;;;;;;;6.56;57.12;98791.97;5001416;28;20045;-75
2022/02/21 09:28:26;;;;;;;5.32;1.02;;;;;;;6.69;58.05;98802.25;4989667;28;20037;-76
2022/02/21 09:30:55;;;;;;;5.75;1.05;;;;;;;6.67;56.80;98799.63;5004961;28;20117;-76
2022/02/21 09:33:21;;;;;;;5.40;1.00;;;;;;;6.71;57.53;98795.22;4983674;28;20049;-76
2022/02/21 09:35:46;;;;;;;6.25;1.10;;;;;;;6.70;54.21;98812.69;4990526;28;20120;-75
2022/02/21 09:38:12;;;;;;;5.75;1.63;;;;;;;6.69;54.05;98807.47;5001356;28;20065;-76
2022/02/21 09:40:37;;;;;;;5.43;1.60;;;;;;;6.77;52.64;98795.09;4994928;28;20064;-75
2022/02/21 09:43:02;;;;;;;4.00;1.23;;;;;;;6.94;55.19;98802.63;5000310;28;20042;-76
2022/02/21 09:45:29;;;;;;;6.03;1.10;;;;;;;7.05;55.95;98794.56;5002991;28;20494;-76
2022/02/21 09:47:55;;;;;;;5.43;1.17;;;;;;;7.13;56.22;98808.41;5002262;28;20076;-76
2022/02/21 09:50:21;;;;;;;3.97;1.05;;;;;;;7.09;56.41;98831.19;5004245;28;20061;-76
2022/02/21 09:52:46;;;;;;;6.47;1.10;;;;;;;6.93;56.10;98808.78;5006663;28;20493;-75
2022/02/21 09:55:11;;;;;;;5.47;1.05;;;;;;;6.78;57.34;98815.16;5004467;28;20509;-75
2022/02/21 09:57:37;;;;;;;4.45;1.08;;;;;;;6.73;56.75;98801.28;5000914;28;20061;-76
2022/02/21 10:00:05;;;;;;;4.95;1.10;;;;;;;6.74;56.95;98843.22;5001674;28;20038;-75
2022/02/21 10:02:33;;;;;;;3.20;1.00;;;;;;;6.97;56.39;98831.44;5004782;28;20510;-76
2022/02/21 10:05:26;;;;;;;5.03;1.08;;;;;;;6.96;54.88;98827.94;4989554;28;20045;-75
2022/02/21 10:07:53;;;;;;;5.25;1.30;;;;;;;6.75;55.57;98838.81;5007743;28;20426;-75
2022/02/21 10:10:21;;;;;;;6.40;1.38;;;;;;;6.65;52.55;98901.03;5003918;28;20040;-76
2022/02/21 10:12:48;;;;;;;5.00;1.33;;;;;;;6.51;53.69;98867.19;5001374;28;20033;-75
2022/02/21 10:15:17;;;;;;;4.68;1.35;;;;;;;6.45;54.20;98861.19;5003701;28;20529;-75
2022/02/21 10:17:42;;;;;;;7.70;1.40;;;;;;;6.27;53.49;98891.16;5001402;28;20037;-76
2022/02/21 10:20:09;;;;;;;5.22;1.35;;;;;;;6.18;53.79;98910.47;5001551;28;20029;-75
2022/02/21 10:22:35;;;;;;;3.92;0.73;;;;;;;6.22;54.85;98862.41;5002545;28;20103;-76
2022/02/21 10:25:01;;;;;;;4.97;0.82;;;;;;;6.22;54.79;98924.44;5000051;28;20044;-75
2022/02/21 10:27:29;;;;;;;7.85;1.38;;;;;;;6.23;56.59;98897.31;5003265;28;20037;-76
2022/02/21 10:30:00;;;;;;;2.40;0.80;;;;;;;6.27;57.28;98883.31;4983800;28;20133;-76
2022/02/21 10:32:28;;;;;;;2.60;0.70;;;;;;;6.19;57.11;98893.91;5002137;28;20037;-76
2022/02/21 10:34:55;;;;;;;4.38;0.88;;;;;;;6.44;57.70;98885.66;5008719;28;20030;-75
2022/02/21 10:37:26;;;;;;;4.75;0.90;;;;;;;6.75;56.76;98905.22;5008892;28;20037;-75
2022/02/21 10:40:05;;;;;;;5.47;1.02;;;;;;;6.89;56.38;98896.25;5008569;28;20041;-76
2022/02/21 10:42:32;;;;;;;2.70;0.65;;;;;;;6.88;56.91;98892.78;5003185;28;20037;-75
2022/02/21 10:45:08;;;;;;;4.45;1.00;;;;;;;6.93;55.59;98890.09;5003663;28;20069;-75
2022/02/21 10:47:34;;;;;;;3.05;0.73;;;;;;;6.85;56.47;98900.72;5004368;28;20042;-75
2022/02/21 10:50:00;;;;;;;3.28;0.77;;;;;;;6.91;55.63;98910.22;5004778;28;20036;-76
2022/02/21 10:52:38;;;;;;;4.60;0.90;;;;;;;6.86;54.95;98912.91;4984100;28;20560;-75
2022/02/21 10:55:06;;;;;;;4.65;1.10;;;;;;;6.76;55.28;98898.25;5007187;28;20034;-75
2022/02/21 10:57:44;;;;;;;7.00;1.75;;;;;;;6.89;54.32;98914.63;4999409;28;20030;-75
2022/02/21 11:00:11;;;;;;;6.95;1.45;;;;;;;7.02;54.01;98900.41;4987714;28;20477;-76
2022/02/21 11:02:41;;;;;;;4.88;1.10;;;;;;;7.17;55.35;98899.25;5010142;28;20038;-74
2022/02/21 11:05:09;;;;;;;4.22;1.00;;;;;;;7.14;54.94;98896.69;5011402;28;20038;-75
2022/02/21 11:07:38;;;;;;;3.03;0.80;;;;;;;7.10;53.74;98897.63;5006078;28;20038;-74
2022/02/21 11:10:05;;;;;;;3.20;1.02;;;;;;;7.04;54.27;98901.25;5013380;28;20072;-78
2022/02/21 11:12:34;;;;;;;7.93;0.80;;;;;;;7.09;52.65;98912.53;4988124;28;20660;-75
2022/02/21 11:15:01;;;;;;;5.15;1.08;;;;;;;7.15;54.10;98901.03;5012094;28;20081;-76
2022/02/21 11:17:28;;;;;;;5.15;1.45;;;;;;;7.13;53.96;98901.09;4989908;28;20045;-75
2022/02/21 11:19:53;;;;;;;4.50;1.05;;;;;;;7.15;52.17;98901.03;5008329;28;20041;-75
2022/02/21 11:22:19;;;;;;;3.40;0.75;;;;;;;7.08;52.81;98888.97;5018139;28;20409;-75
2022/02/21 11:24:52;;;;;;;3.80;1.13;;;;;;;7.20;51.01;98905.34;5006233;28;20026;-75
2022/02/21 11:27:22;;;;;;;3.95;1.17;;;;;;;7.43;50.72;98897.00;5000519;28;20045;-76
2022/02/21 11:30:02;;;;;;;6.57;1.05;;;;;;;7.46;48.38;98901.34;5015437;28;20053;-75
2022/02/21 11:32:27;;;;;;;4.72;1.48;;;;;;;7.51;49.51;98875.84;5019165;28;20124;-74
2022/02/21 11:35:16;;;;;;;5.00;0.88;;;;;;;7.49;49.95;98905.66;5001419;28;20133;-75